This is the latest recevied weather packets stored in our database for station/object KB2FWP. If no packets are shown the sender has not sent any weather packets the latest 1 day(s).
| Time | Temp. | Humidity | Pressure | Rain* | Wind** | Luminosity | Snow |
|---|---|---|---|---|---|---|---|
| 1778013044 | 15.56° C | 81% | 1010.2 hPa | 0 mm | 7.15 m/s, 198° | - | - |
| 1778012141 | 15.56° C | 81% | 1010.4 hPa | 0 mm | 6.71 m/s, 187° | - | - |
| 1778011245 | 15.56° C | 81% | 1010.5 hPa | 0 mm | 5.36 m/s, 206° | - | - |
| 1778010339 | 16.11° C | 81% | 1010.6 hPa | 0 mm | 6.26 m/s, 184° | - | - |
| 1778009437 | 16.11° C | 81% | 1011 hPa | 0 mm | 5.36 m/s, 184° | - | - |
| 1778008536 | 16.11° C | 80% | 1011.1 hPa | 0 mm | 4.47 m/s, 186° | - | - |
| 1778007637 | 16.11° C | 80% | 1011.3 hPa | 0 mm | 6.71 m/s, 226° | - | - |
| 1778006732 | 16.11° C | 81% | 1011.7 hPa | 0 mm | 5.36 m/s, 181° | - | - |
| 1778005842 | 16.11° C | 80% | 1011.9 hPa | 0 mm | 3.58 m/s, 235° | - | - |
| 1778004929 | 16.67° C | 80% | 1012.1 hPa | 0 mm | 3.13 m/s, 237° | - | - |
| 1778004029 | 17.22° C | 78% | 1012.3 hPa | 0 mm | 2.24 m/s, 231° | - | - |
| 1778003126 | 16.67° C | 80% | 1012.5 hPa | 0 mm | 2.24 m/s, 212° | - | - |
| 1778002224 | 16.11° C | 81% | 1012.5 hPa | 0 mm | 2.68 m/s, 180° | - | - |
| 1778001324 | 16.11° C | 81% | 1012.6 hPa | 0 mm | 2.68 m/s, 189° | - | - |
| 1778000424 | 15.56° C | 84% | 1012.7 hPa | 0 mm | 1.79 m/s, 230° | - | - |
| 1777999523 | 15.56° C | 81% | 1012.9 hPa | 0 mm | 3.58 m/s, 196° | - | - |
| 1777998621 | 15.56° C | 82% | 1012.9 hPa | 0 mm | 2.68 m/s, 192° | - | - |
| 1777997780 | 16.11° C | 81% | 1013 hPa | 0 mm | 3.13 m/s, 182° | - | - |
| 1777996820 | 15.56° C | 83% | 1013 hPa | 0 mm | 2.24 m/s, 169° | - | - |
| 1777995919 | 15.56° C | 82% | 1013.3 hPa | 0 mm | 3.58 m/s, 239° | - | - |
| 1777995018 | 16.11° C | 82% | 1013.2 hPa | 0 mm | 1.79 m/s, 183° | - | - |
| 1777994116 | 15.56° C | 83% | 1013.5 hPa | 0 mm | 3.13 m/s, 214° | - | - |
| 1777993213 | 15° C | 85% | 1013.8 hPa | 0 mm | 2.68 m/s, 185° | - | - |
| 1777992313 | 15° C | 85% | 1013.8 hPa | 0 mm | 2.68 m/s, 270° | - | - |
| 1777991409 | 15° C | 86% | 1013.7 hPa | 0 mm | 3.13 m/s, 210° | - | - |
* Rain latest hour (hover to see other rain measurements)
** Current wind speed in m/s (hover to see current wind gust speed)